Airfield :
LOGIN :

Register | Disclaimer

   EN    FR    IT 

 










Legend :    VFR   Marginal VFR   IFR   Intensive IFR   Very Intensive IFR
Visi :
Ceiling :
>= 8 km
>= 3000ft
5 to 8 km
1000 to 3000 ft
1500m to 5 km
500 to 1000 ft
800 to 1500m
200 to 500 ft
< 800m
< 200 ft
Symbols :   Thunderstorms  Fog  Heavy snow  Heavy precipitations  Wind > 20 kt
SIGMETs :     Misc.  Thunderstorms  Icing  Turbulence  Mountain Waves  Volcanic Ashes






- Airport Elevation : 44 ft
- IATA code : SOU


EGHI - Southampton

CURRENT METAR :
  • 241450Z 22008KT 190V260 9999 SCT038 13/07 Q0994

EXPIRED METARs :
  • 241420Z VRB03KT 9999 SCT038 13/09 Q0995
  • 241350Z 15004KT 110V200 9999 SCT038 13/09 Q0995
  • 241320Z VRB02KT 9999 FEW038 SCT042 12/09 Q0995
  • 241250Z 21004KT 140V240 9999 -RA SCT032 BKN042 11/08 Q0996
  • 241220Z VRB02KT 9999 SCT032 BKN041 11/09 Q0996

TAF TAF EGHI
Valid from the 24 at 15:00 until the 24 at 22:00 UTC


241355Z 2415/2422 18009KT 9999 SCT025
TEMPO 2415/2422 23015G25KT 6000 SHRA
PROB30
TEMPO 2415/2422 3000 +TSRA +SHGS BKN020CB
ATIS : +44 23 8062 7103



MET'MAP, your aeronautical weather chart ! - Copyright ORBIFLY December 2007 - Disclaimer

ORBIFLY MET'MAP TEAM :

Programming & Development : Alexandra Zaïnal
Concept & original design : Baudouin d'Aumeries
Assistance for programming : Marc-Olivier Méhu
Technical & hardware support : Manuel Goepfert

Contact : metmap@orbifly.com




SOURCES & CREDITS :

   NOAA